sensor_id;sensor_type;location;lat;lon;timestamp;P1;durP1;ratioP1;P2;durP2;ratioP2
17496;SDS011;62150;43.582;1.456;2023-04-03T05:56:14;7.50;;;3.40;;
17496;SDS011;62150;43.582;1.456;2023-04-03T05:58:41;6.93;;;3.27;;
17496;SDS011;62150;43.582;1.456;2023-04-03T06:01:09;7.20;;;3.40;;
17496;SDS011;62150;43.582;1.456;2023-04-03T06:03:36;7.47;;;3.40;;
17496;SDS011;62150;43.582;1.456;2023-04-03T06:06:05;6.00;;;3.23;;
17496;SDS011;62150;43.582;1.456;2023-04-03T06:08:33;7.83;;;3.47;;
17496;SDS011;62150;43.582;1.456;2023-04-03T06:11:00;6.27;;;3.30;;
17496;SDS011;62150;43.582;1.456;2023-04-03T06:13:29;7.33;;;3.40;;
17496;SDS011;62150;43.582;1.456;2023-04-03T06:15:58;6.57;;;3.30;;
17496;SDS011;62150;43.582;1.456;2023-04-03T06:18:26;6.80;;;3.37;;
17496;SDS011;62150;43.582;1.456;2023-04-03T06:20:53;7.10;;;3.20;;
17496;SDS011;62150;43.582;1.456;2023-04-03T06:23:21;6.97;;;3.47;;
17496;SDS011;62150;43.582;1.456;2023-04-03T06:25:48;8.07;;;3.47;;
17496;SDS011;62150;43.582;1.456;2023-04-03T06:28:16;6.13;;;3.07;;
17496;SDS011;62150;43.582;1.456;2023-04-03T06:30:45;7.23;;;3.40;;
17496;SDS011;62150;43.582;1.456;2023-04-03T06:33:13;6.70;;;3.10;;
17496;SDS011;62150;43.582;1.456;2023-04-03T06:35:40;7.53;;;3.30;;
17496;SDS011;62150;43.582;1.456;2023-04-03T06:38:08;7.00;;;3.57;;
17496;SDS011;62150;43.582;1.456;2023-04-03T06:40:36;7.50;;;3.40;;
17496;SDS011;62150;43.582;1.456;2023-04-03T06:43:04;5.93;;;3.13;;
17496;SDS011;62150;43.582;1.456;2023-04-03T06:45:32;7.53;;;3.30;;
17496;SDS011;62150;43.582;1.456;2023-04-03T06:48:01;6.97;;;3.40;;
17496;SDS011;62150;43.582;1.456;2023-04-03T06:50:29;7.20;;;3.37;;
17496;SDS011;62150;43.582;1.456;2023-04-03T06:52:56;8.07;;;4.07;;
17496;SDS011;62150;43.582;1.456;2023-04-03T06:55:26;7.23;;;3.37;;
17496;SDS011;62150;43.582;1.456;2023-04-03T06:57:53;6.83;;;3.40;;
17496;SDS011;62150;43.582;1.456;2023-04-03T07:00:21;8.37;;;3.30;;
17496;SDS011;62150;43.582;1.456;2023-04-03T07:02:49;8.63;;;3.20;;
17496;SDS011;62150;43.582;1.456;2023-04-03T07:05:18;7.00;;;3.00;;
17496;SDS011;62150;43.582;1.456;2023-04-03T07:07:45;6.90;;;3.10;;
17496;SDS011;62150;43.582;1.456;2023-04-03T07:10:14;7.23;;;3.37;;
17496;SDS011;62150;43.582;1.456;2023-04-03T07:12:42;6.90;;;3.20;;
17496;SDS011;62150;43.582;1.456;2023-04-03T07:15:10;6.00;;;3.10;;
17496;SDS011;62150;43.582;1.456;2023-04-03T07:17:39;8.00;;;3.63;;
17496;SDS011;62150;43.582;1.456;2023-04-03T07:20:07;7.77;;;3.40;;
17496;SDS011;62150;43.582;1.456;2023-04-03T07:22:37;6.90;;;3.10;;
17496;SDS011;62150;43.582;1.456;2023-04-03T07:25:05;5.87;;;3.17;;
17496;SDS011;62150;43.582;1.456;2023-04-03T07:27:33;8.23;;;3.27;;
17496;SDS011;62150;43.582;1.456;2023-04-03T07:30:01;7.33;;;3.20;;
17496;SDS011;62150;43.582;1.456;2023-04-03T07:32:28;7.47;;;3.43;;
17496;SDS011;62150;43.582;1.456;2023-04-03T07:34:56;9.53;;;4.17;;
17496;SDS011;62150;43.582;1.456;2023-04-03T07:37:23;8.10;;;3.47;;
17496;SDS011;62150;43.582;1.456;2023-04-03T07:39:52;8.43;;;3.27;;
17496;SDS011;62150;43.582;1.456;2023-04-03T07:42:22;8.00;;;3.57;;
17496;SDS011;62150;43.582;1.456;2023-04-03T07:44:49;7.97;;;3.40;;
17496;SDS011;62150;43.582;1.456;2023-04-03T07:47:17;8.43;;;3.90;;
17496;SDS011;62150;43.582;1.456;2023-04-03T07:49:45;7.50;;;3.50;;
17496;SDS011;62150;43.582;1.456;2023-04-03T07:52:13;6.67;;;3.30;;
17496;SDS011;62150;43.582;1.456;2023-04-03T07:54:41;7.23;;;3.33;;
17496;SDS011;62150;43.582;1.456;2023-04-03T07:57:10;7.77;;;3.37;;
17496;SDS011;62150;43.582;1.456;2023-04-03T07:59:37;8.20;;;3.20;;
17496;SDS011;62150;43.582;1.456;2023-04-03T08:02:08;9.07;;;3.40;;
17496;SDS011;62150;43.582;1.456;2023-04-03T08:04:36;8.70;;;3.60;;
17496;SDS011;62150;43.582;1.456;2023-04-03T08:07:04;6.60;;;3.20;;
17496;SDS011;62150;43.582;1.456;2023-04-03T08:09:31;6.47;;;3.20;;
17496;SDS011;62150;43.582;1.456;2023-04-03T08:11:59;7.57;;;3.20;;
17496;SDS011;62150;43.582;1.456;2023-04-03T08:14:29;7.47;;;3.03;;
17496;SDS011;62150;43.582;1.456;2023-04-03T08:16:59;8.27;;;3.20;;
17496;SDS011;62150;43.582;1.456;2023-04-03T08:19:29;6.80;;;3.20;;
17496;SDS011;62150;43.582;1.456;2023-04-03T08:21:57;8.93;;;3.40;;
17496;SDS011;62150;43.582;1.456;2023-04-03T08:24:25;6.93;;;3.27;;
17496;SDS011;62150;43.582;1.456;2023-04-03T08:26:53;6.97;;;3.37;;
17496;SDS011;62150;43.582;1.456;2023-04-03T08:29:21;6.63;;;3.47;;
17496;SDS011;62150;43.582;1.456;2023-04-03T08:31:50;7.47;;;3.30;;
17496;SDS011;62150;43.582;1.456;2023-04-03T08:34:18;8.17;;;3.30;;
17496;SDS011;62150;43.582;1.456;2023-04-03T08:36:46;7.10;;;3.37;;
17496;SDS011;62150;43.582;1.456;2023-04-03T08:39:13;7.93;;;3.17;;
17496;SDS011;62150;43.582;1.456;2023-04-03T08:41:41;6.70;;;3.17;;
17496;SDS011;62150;43.582;1.456;2023-04-03T08:44:15;8.77;;;3.60;;
17496;SDS011;62150;43.582;1.456;2023-04-03T08:49:44;7.47;;;3.50;;
17496;SDS011;62150;43.582;1.456;2023-04-03T08:52:17;6.03;;;3.03;;
17496;SDS011;62150;43.582;1.456;2023-04-03T08:54:49;8.23;;;3.07;;
17496;SDS011;62150;43.582;1.456;2023-04-03T08:57:20;6.93;;;3.20;;
17496;SDS011;62150;43.582;1.456;2023-04-03T08:59:55;7.80;;;3.40;;
17496;SDS011;62150;43.582;1.456;2023-04-03T09:02:30;7.43;;;3.20;;
17496;SDS011;62150;43.582;1.456;2023-04-03T09:05:06;8.00;;;3.30;;
17496;SDS011;62150;43.582;1.456;2023-04-03T09:07:42;6.63;;;3.20;;
17496;SDS011;62150;43.582;1.456;2023-04-03T09:10:13;7.37;;;3.00;;
17496;SDS011;62150;43.582;1.456;2023-04-03T09:12:42;7.17;;;3.20;;
17496;SDS011;62150;43.582;1.456;2023-04-03T09:15:17;5.47;;;2.80;;
17496;SDS011;62150;43.582;1.456;2023-04-03T09:17:52;7.07;;;3.03;;
17496;SDS011;62150;43.582;1.456;2023-04-03T09:20:27;6.63;;;3.10;;
17496;SDS011;62150;43.582;1.456;2023-04-03T09:23:08;8.53;;;3.27;;
17496;SDS011;62150;43.582;1.456;2023-04-03T09:25:44;6.37;;;2.90;;
17496;SDS011;62150;43.582;1.456;2023-04-03T09:28:12;5.80;;;2.93;;
17496;SDS011;62150;43.582;1.456;2023-04-03T09:30:40;7.03;;;2.80;;
17496;SDS011;62150;43.582;1.456;2023-04-03T09:33:09;7.10;;;3.27;;
17496;SDS011;62150;43.582;1.456;2023-04-03T09:35:37;6.83;;;3.00;;
17496;SDS011;62150;43.582;1.456;2023-04-03T09:38:16;6.30;;;3.03;;
17496;SDS011;62150;43.582;1.456;2023-04-03T09:40:46;6.40;;;2.93;;
17496;SDS011;62150;43.582;1.456;2023-04-03T09:43:22;6.33;;;2.67;;
17496;SDS011;62150;43.582;1.456;2023-04-03T09:45:53;7.83;;;3.17;;
17496;SDS011;62150;43.582;1.456;2023-04-03T09:48:24;5.33;;;2.53;;
17496;SDS011;62150;43.582;1.456;2023-04-03T09:50:57;5.50;;;2.60;;
17496;SDS011;62150;43.582;1.456;2023-04-03T09:53:29;5.50;;;2.70;;
17496;SDS011;62150;43.582;1.456;2023-04-03T09:56:00;5.13;;;2.60;;
17496;SDS011;62150;43.582;1.456;2023-04-03T09:58:31;5.07;;;2.50;;
17496;SDS011;62150;43.582;1.456;2023-04-03T10:01:03;6.60;;;2.83;;
17496;SDS011;62150;43.582;1.456;2023-04-03T10:03:33;6.43;;;2.60;;
17496;SDS011;62150;43.582;1.456;2023-04-03T10:06:02;6.30;;;2.50;;
17496;SDS011;62150;43.582;1.456;2023-04-03T10:08:33;5.50;;;2.70;;
17496;SDS011;62150;43.582;1.456;2023-04-03T10:11:11;5.13;;;2.50;;
17496;SDS011;62150;43.582;1.456;2023-04-03T10:13:52;5.17;;;2.50;;
17496;SDS011;62150;43.582;1.456;2023-04-03T10:16:25;6.47;;;2.50;;
17496;SDS011;62150;43.582;1.456;2023-04-03T10:19:06;6.03;;;2.47;;
17496;SDS011;62150;43.582;1.456;2023-04-03T10:21:57;4.60;;;2.30;;
17496;SDS011;62150;43.582;1.456;2023-04-03T10:24:30;5.40;;;2.70;;
17496;SDS011;62150;43.582;1.456;2023-04-03T10:27:10;7.37;;;2.80;;
17496;SDS011;62150;43.582;1.456;2023-04-03T10:29:46;7.23;;;2.60;;
17496;SDS011;62150;43.582;1.456;2023-04-03T10:35:17;5.37;;;2.50;;
17496;SDS011;62150;43.582;1.456;2023-04-03T10:37:56;5.00;;;2.40;;
17496;SDS011;62150;43.582;1.456;2023-04-03T10:40:31;3.17;;;2.13;;
17496;SDS011;62150;43.582;1.456;2023-04-03T10:43:08;5.13;;;2.33;;
17496;SDS011;62150;43.582;1.456;2023-04-03T10:45:53;4.33;;;2.27;;
17496;SDS011;62150;43.582;1.456;2023-04-03T10:48:33;4.47;;;2.10;;
17496;SDS011;62150;43.582;1.456;2023-04-03T10:51:23;4.37;;;2.30;;
17496;SDS011;62150;43.582;1.456;2023-04-03T10:53:55;4.10;;;2.30;;
17496;SDS011;62150;43.582;1.456;2023-04-03T10:56:30;6.13;;;2.40;;
17496;SDS011;62150;43.582;1.456;2023-04-03T10:59:05;4.57;;;2.20;;
17496;SDS011;62150;43.582;1.456;2023-04-03T11:01:42;6.13;;;2.20;;
17496;SDS011;62150;43.582;1.456;2023-04-03T11:04:12;4.33;;;2.20;;
17496;SDS011;62150;43.582;1.456;2023-04-03T11:06:43;3.17;;;2.00;;
17496;SDS011;62150;43.582;1.456;2023-04-03T11:09:16;4.60;;;2.13;;
17496;SDS011;62150;43.582;1.456;2023-04-03T11:11:49;4.90;;;2.10;;
17496;SDS011;62150;43.582;1.456;2023-04-03T11:14:24;6.17;;;2.10;;
17496;SDS011;62150;43.582;1.456;2023-04-03T11:16:59;3.20;;;1.70;;
17496;SDS011;62150;43.582;1.456;2023-04-03T11:19:37;3.07;;;1.80;;
17496;SDS011;62150;43.582;1.456;2023-04-03T11:22:13;2.60;;;1.80;;
17496;SDS011;62150;43.582;1.456;2023-04-03T11:24:51;3.57;;;1.90;;
17496;SDS011;62150;43.582;1.456;2023-04-03T11:27:25;3.20;;;2.20;;
17496;SDS011;62150;43.582;1.456;2023-04-03T11:29:58;4.10;;;2.27;;
17496;SDS011;62150;43.582;1.456;2023-04-03T11:32:30;5.07;;;2.20;;
17496;SDS011;62150;43.582;1.456;2023-04-03T11:35:18;3.77;;;2.10;;
17496;SDS011;62150;43.582;1.456;2023-04-03T11:37:49;4.87;;;2.10;;
17496;SDS011;62150;43.582;1.456;2023-04-03T11:40:20;3.33;;;1.97;;
17496;SDS011;62150;43.582;1.456;2023-04-03T11:42:52;3.87;;;1.97;;
17496;SDS011;62150;43.582;1.456;2023-04-03T11:45:31;4.00;;;2.00;;
17496;SDS011;62150;43.582;1.456;2023-04-03T11:48:05;3.20;;;1.90;;
17496;SDS011;62150;43.582;1.456;2023-04-03T11:50:53;6.87;;;2.10;;
17496;SDS011;62150;43.582;1.456;2023-04-03T11:53:30;5.40;;;2.10;;
17496;SDS011;62150;43.582;1.456;2023-04-03T11:56:00;4.80;;;1.90;;
17496;SDS011;62150;43.582;1.456;2023-04-03T11:58:42;3.17;;;1.90;;
17496;SDS011;62150;43.582;1.456;2023-04-03T12:01:48;5.43;;;2.10;;
17496;SDS011;62150;43.582;1.456;2023-04-03T12:04:17;3.60;;;1.93;;
17496;SDS011;62150;43.582;1.456;2023-04-03T12:09:58;4.17;;;2.20;;
17496;SDS011;62150;43.582;1.456;2023-04-03T12:12:31;5.57;;;2.10;;
17496;SDS011;62150;43.582;1.456;2023-04-03T12:15:21;5.13;;;2.27;;
17496;SDS011;62150;43.582;1.456;2023-04-03T12:17:52;3.63;;;2.10;;
17496;SDS011;62150;43.582;1.456;2023-04-03T12:23:32;4.77;;;2.10;;
17496;SDS011;62150;43.582;1.456;2023-04-03T12:26:05;2.63;;;1.80;;
17496;SDS011;62150;43.582;1.456;2023-04-03T12:28:48;2.37;;;1.60;;
17496;SDS011;62150;43.582;1.456;2023-04-03T12:31:18;4.30;;;2.10;;
17496;SDS011;62150;43.582;1.456;2023-04-03T12:33:57;2.97;;;2.00;;
17496;SDS011;62150;43.582;1.456;2023-04-03T12:36:41;3.13;;;2.00;;
17496;SDS011;62150;43.582;1.456;2023-04-03T12:39:23;5.10;;;2.30;;
17496;SDS011;62150;43.582;1.456;2023-04-03T12:42:06;3.27;;;2.00;;
17496;SDS011;62150;43.582;1.456;2023-04-03T12:44:49;5.13;;;2.30;;
17496;SDS011;62150;43.582;1.456;2023-04-03T12:47:27;5.83;;;2.43;;
17496;SDS011;62150;43.582;1.456;2023-04-03T12:50:01;5.43;;;2.50;;
17496;SDS011;62150;43.582;1.456;2023-04-03T12:52:35;4.07;;;2.20;;
17496;SDS011;62150;43.582;1.456;2023-04-03T12:55:14;4.30;;;2.30;;
17496;SDS011;62150;43.582;1.456;2023-04-03T12:57:44;4.13;;;2.07;;
17496;SDS011;62150;43.582;1.456;2023-04-03T13:00:19;4.30;;;2.23;;
17496;SDS011;62150;43.582;1.456;2023-04-03T13:02:52;5.37;;;2.10;;
17496;SDS011;62150;43.582;1.456;2023-04-03T13:05:21;4.70;;;2.17;;
17496;SDS011;62150;43.582;1.456;2023-04-03T13:07:57;4.27;;;2.13;;
17496;SDS011;62150;43.582;1.456;2023-04-03T13:10:27;3.87;;;2.00;;
17496;SDS011;62150;43.582;1.456;2023-04-03T13:12:56;2.97;;;1.87;;
17496;SDS011;62150;43.582;1.456;2023-04-03T13:15:39;5.50;;;1.90;;
17496;SDS011;62150;43.582;1.456;2023-04-03T13:18:20;2.57;;;1.70;;
17496;SDS011;62150;43.582;1.456;2023-04-03T13:20:50;4.73;;;2.20;;
17496;SDS011;62150;43.582;1.456;2023-04-03T13:23:18;3.60;;;1.90;;
17496;SDS011;62150;43.582;1.456;2023-04-03T13:25:48;3.70;;;2.00;;
17496;SDS011;62150;43.582;1.456;2023-04-03T13:28:19;3.17;;;1.73;;
17496;SDS011;62150;43.582;1.456;2023-04-03T13:30:57;5.13;;;2.30;;
17496;SDS011;62150;43.582;1.456;2023-04-03T13:33:29;3.60;;;2.00;;
17496;SDS011;62150;43.582;1.456;2023-04-03T13:36:03;4.43;;;2.10;;
17496;SDS011;62150;43.582;1.456;2023-04-03T13:38:34;4.23;;;2.10;;
17496;SDS011;62150;43.582;1.456;2023-04-03T13:41:03;3.67;;;1.97;;
17496;SDS011;62150;43.582;1.456;2023-04-03T13:43:49;3.10;;;2.00;;
17496;SDS011;62150;43.582;1.456;2023-04-03T13:46:23;4.57;;;2.10;;
17496;SDS011;62150;43.582;1.456;2023-04-03T13:48:53;3.70;;;2.20;;
17496;SDS011;62150;43.582;1.456;2023-04-03T13:51:23;4.07;;;1.90;;
17496;SDS011;62150;43.582;1.456;2023-04-03T13:53:54;3.37;;;1.90;;
17496;SDS011;62150;43.582;1.456;2023-04-03T13:56:29;3.97;;;1.90;;
17496;SDS011;62150;43.582;1.456;2023-04-03T13:59:02;5.30;;;2.00;;
17496;SDS011;62150;43.582;1.456;2023-04-03T14:01:33;4.17;;;2.10;;
17496;SDS011;62150;43.582;1.456;2023-04-03T14:04:10;2.40;;;1.80;;
17496;SDS011;62150;43.582;1.456;2023-04-03T14:06:41;3.43;;;2.00;;
17496;SDS011;62150;43.582;1.456;2023-04-03T14:09:08;4.07;;;1.87;;
17496;SDS011;62150;43.582;1.456;2023-04-03T14:11:36;4.53;;;2.10;;
17496;SDS011;62150;43.582;1.456;2023-04-03T14:14:11;5.20;;;2.00;;
17496;SDS011;62150;43.582;1.456;2023-04-03T14:16:42;3.63;;;2.20;;
17496;SDS011;62150;43.582;1.456;2023-04-03T14:19:16;3.83;;;2.00;;
17496;SDS011;62150;43.582;1.456;2023-04-03T14:21:46;3.63;;;2.27;;
17496;SDS011;62150;43.582;1.456;2023-04-03T14:24:16;4.77;;;2.00;;
17496;SDS011;62150;43.582;1.456;2023-04-03T14:26:45;5.40;;;2.23;;
17496;SDS011;62150;43.582;1.456;2023-04-03T14:29:15;5.57;;;2.10;;
17496;SDS011;62150;43.582;1.456;2023-04-03T14:31:44;3.87;;;2.10;;
17496;SDS011;62150;43.582;1.456;2023-04-03T14:34:12;3.07;;;1.90;;
17496;SDS011;62150;43.582;1.456;2023-04-03T14:36:41;3.37;;;2.00;;
17496;SDS011;62150;43.582;1.456;2023-04-03T14:39:11;4.53;;;2.30;;
17496;SDS011;62150;43.582;1.456;2023-04-03T14:41:44;3.80;;;2.00;;
17496;SDS011;62150;43.582;1.456;2023-04-03T14:44:12;4.47;;;2.20;;
17496;SDS011;62150;43.582;1.456;2023-04-03T14:46:42;4.63;;;2.17;;
17496;SDS011;62150;43.582;1.456;2023-04-03T14:49:12;5.03;;;2.10;;
17496;SDS011;62150;43.582;1.456;2023-04-03T14:51:44;4.40;;;2.30;;
17496;SDS011;62150;43.582;1.456;2023-04-03T14:54:12;4.00;;;2.07;;
17496;SDS011;62150;43.582;1.456;2023-04-03T14:56:41;5.20;;;2.30;;
17496;SDS011;62150;43.582;1.456;2023-04-03T15:01:39;5.17;;;2.50;;
17496;SDS011;62150;43.582;1.456;2023-04-03T15:04:09;6.63;;;2.60;;
17496;SDS011;62150;43.582;1.456;2023-04-03T15:06:38;6.53;;;2.40;;
17496;SDS011;62150;43.582;1.456;2023-04-03T15:09:09;3.73;;;2.10;;
17496;SDS011;62150;43.582;1.456;2023-04-03T15:11:44;3.73;;;1.90;;
17496;SDS011;62150;43.582;1.456;2023-04-03T15:14:12;3.87;;;1.90;;
17496;SDS011;62150;43.582;1.456;2023-04-03T15:16:41;4.97;;;2.20;;
17496;SDS011;62150;43.582;1.456;2023-04-03T15:19:08;4.67;;;2.10;;
17496;SDS011;62150;43.582;1.456;2023-04-03T15:21:37;3.37;;;1.90;;
17496;SDS011;62150;43.582;1.456;2023-04-03T15:24:04;3.73;;;2.00;;
17496;SDS011;62150;43.582;1.456;2023-04-03T15:26:33;4.27;;;2.07;;
17496;SDS011;62150;43.582;1.456;2023-04-03T15:29:00;4.27;;;2.20;;
17496;SDS011;62150;43.582;1.456;2023-04-03T15:31:29;4.90;;;2.10;;
17496;SDS011;62150;43.582;1.456;2023-04-03T15:33:58;4.70;;;2.20;;
17496;SDS011;62150;43.582;1.456;2023-04-03T15:36:25;3.87;;;2.00;;
17496;SDS011;62150;43.582;1.456;2023-04-03T15:38:53;4.93;;;2.03;;
17496;SDS011;62150;43.582;1.456;2023-04-03T15:41:20;3.97;;;2.20;;
17496;SDS011;62150;43.582;1.456;2023-04-03T15:43:48;4.03;;;2.10;;
17496;SDS011;62150;43.582;1.456;2023-04-03T15:46:15;4.97;;;2.03;;
17496;SDS011;62150;43.582;1.456;2023-04-03T15:48:43;4.83;;;2.17;;
17496;SDS011;62150;43.582;1.456;2023-04-03T15:51:13;5.27;;;2.27;;
17496;SDS011;62150;43.582;1.456;2023-04-03T15:53:40;4.47;;;2.10;;
17496;SDS011;62150;43.582;1.456;2023-04-03T15:56:08;4.50;;;2.20;;
17496;SDS011;62150;43.582;1.456;2023-04-03T15:58:37;5.27;;;2.20;;
17496;SDS011;62150;43.582;1.456;2023-04-03T16:01:08;4.13;;;2.23;;
17496;SDS011;62150;43.582;1.456;2023-04-03T16:03:36;4.93;;;2.30;;
17496;SDS011;62150;43.582;1.456;2023-04-03T16:06:10;4.83;;;2.20;;
17496;SDS011;62150;43.582;1.456;2023-04-03T16:08:40;5.33;;;2.70;;
17496;SDS011;62150;43.582;1.456;2023-04-03T16:11:07;6.53;;;2.30;;
17496;SDS011;62150;43.582;1.456;2023-04-03T16:13:35;4.53;;;2.20;;
17496;SDS011;62150;43.582;1.456;2023-04-03T16:16:03;5.77;;;2.07;;
17496;SDS011;62150;43.582;1.456;2023-04-03T16:18:31;3.30;;;2.00;;
17496;SDS011;62150;43.582;1.456;2023-04-03T16:21:00;4.17;;;2.00;;
17496;SDS011;62150;43.582;1.456;2023-04-03T16:23:29;2.87;;;1.87;;
17496;SDS011;62150;43.582;1.456;2023-04-03T16:25:57;4.63;;;2.10;;
17496;SDS011;62150;43.582;1.456;2023-04-03T16:28:24;3.43;;;1.90;;
17496;SDS011;62150;43.582;1.456;2023-04-03T16:30:52;5.13;;;2.00;;
17496;SDS011;62150;43.582;1.456;2023-04-03T16:33:20;4.73;;;2.00;;
17496;SDS011;62150;43.582;1.456;2023-04-03T16:35:47;3.93;;;2.00;;
17496;SDS011;62150;43.582;1.456;2023-04-03T16:38:15;4.13;;;2.00;;
17496;SDS011;62150;43.582;1.456;2023-04-03T16:40:45;3.20;;;2.10;;
17496;SDS011;62150;43.582;1.456;2023-04-03T16:43:13;2.43;;;1.83;;
17496;SDS011;62150;43.582;1.456;2023-04-03T16:45:41;4.93;;;2.00;;
17496;SDS011;62150;43.582;1.456;2023-04-03T16:48:09;4.33;;;2.00;;
17496;SDS011;62150;43.582;1.456;2023-04-03T16:50:36;3.93;;;2.20;;
17496;SDS011;62150;43.582;1.456;2023-04-03T16:53:03;5.90;;;2.20;;
17496;SDS011;62150;43.582;1.456;2023-04-03T16:55:34;4.20;;;2.00;;
17496;SDS011;62150;43.582;1.456;2023-04-03T16:58:03;3.73;;;1.90;;
17496;SDS011;62150;43.582;1.456;2023-04-03T17:00:31;5.63;;;2.10;;
17496;SDS011;62150;43.582;1.456;2023-04-03T17:02:59;3.20;;;1.90;;
17496;SDS011;62150;43.582;1.456;2023-04-03T17:05:26;4.03;;;2.20;;
17496;SDS011;62150;43.582;1.456;2023-04-03T17:07:54;4.60;;;2.13;;
17496;SDS011;62150;43.582;1.456;2023-04-03T17:10:21;4.27;;;2.23;;
17496;SDS011;62150;43.582;1.456;2023-04-03T17:12:49;3.97;;;2.20;;
17496;SDS011;62150;43.582;1.456;2023-04-03T17:15:18;3.80;;;2.00;;
17496;SDS011;62150;43.582;1.456;2023-04-03T17:17:45;3.90;;;2.17;;
17496;SDS011;62150;43.582;1.456;2023-04-03T17:20:14;4.70;;;2.00;;
17496;SDS011;62150;43.582;1.456;2023-04-03T17:22:41;3.77;;;2.10;;
17496;SDS011;62150;43.582;1.456;2023-04-03T17:25:09;2.93;;;1.87;;
17496;SDS011;62150;43.582;1.456;2023-04-03T17:27:38;4.07;;;2.10;;
17496;SDS011;62150;43.582;1.456;2023-04-03T17:30:06;4.33;;;2.00;;
17496;SDS011;62150;43.582;1.456;2023-04-03T17:32:36;3.07;;;1.90;;
17496;SDS011;62150;43.582;1.456;2023-04-03T17:35:03;4.47;;;2.00;;
17496;SDS011;62150;43.582;1.456;2023-04-03T17:37:32;4.10;;;2.00;;
17496;SDS011;62150;43.582;1.456;2023-04-03T17:39:59;3.27;;;2.10;;
17496;SDS011;62150;43.582;1.456;2023-04-03T17:42:27;5.23;;;2.40;;
17496;SDS011;62150;43.582;1.456;2023-04-03T17:44:55;5.07;;;2.40;;
17496;SDS011;62150;43.582;1.456;2023-04-03T17:47:25;4.97;;;2.07;;
17496;SDS011;62150;43.582;1.456;2023-04-03T17:49:53;4.87;;;2.20;;
17496;SDS011;62150;43.582;1.456;2023-04-03T17:52:21;3.87;;;2.07;;
17496;SDS011;62150;43.582;1.456;2023-04-03T17:54:52;4.03;;;2.00;;
17496;SDS011;62150;43.582;1.456;2023-04-03T17:57:19;5.53;;;2.27;;
17496;SDS011;62150;43.582;1.456;2023-04-03T17:59:47;4.33;;;2.20;;
17496;SDS011;62150;43.582;1.456;2023-04-03T18:02:15;4.53;;;2.20;;
17496;SDS011;62150;43.582;1.456;2023-04-03T18:04:42;3.33;;;2.10;;
17496;SDS011;62150;43.582;1.456;2023-04-03T18:07:11;5.13;;;2.20;;
17496;SDS011;62150;43.582;1.456;2023-04-03T18:09:39;4.63;;;2.13;;
17496;SDS011;62150;43.582;1.456;2023-04-03T18:12:07;4.20;;;1.90;;
17496;SDS011;62150;43.582;1.456;2023-04-03T18:14:35;4.60;;;2.27;;
17496;SDS011;62150;43.582;1.456;2023-04-03T18:17:04;4.00;;;2.30;;
17496;SDS011;62150;43.582;1.456;2023-04-03T18:19:33;5.63;;;2.20;;
17496;SDS011;62150;43.582;1.456;2023-04-03T18:22:01;5.23;;;2.47;;
17496;SDS011;62150;43.582;1.456;2023-04-03T18:24:33;4.17;;;2.20;;
17496;SDS011;62150;43.582;1.456;2023-04-03T18:27:02;4.70;;;2.50;;
17496;SDS011;62150;43.582;1.456;2023-04-03T18:29:35;4.97;;;2.33;;
17496;SDS011;62150;43.582;1.456;2023-04-03T18:32:05;5.13;;;2.60;;
17496;SDS011;62150;43.582;1.456;2023-04-03T18:34:35;5.03;;;2.40;;
17496;SDS011;62150;43.582;1.456;2023-04-03T18:37:03;4.10;;;2.30;;
17496;SDS011;62150;43.582;1.456;2023-04-03T18:39:30;5.10;;;2.40;;
17496;SDS011;62150;43.582;1.456;2023-04-03T18:42:03;3.50;;;2.30;;
17496;SDS011;62150;43.582;1.456;2023-04-03T18:44:33;6.10;;;2.50;;
17496;SDS011;62150;43.582;1.456;2023-04-03T18:47:02;5.47;;;2.87;;
17496;SDS011;62150;43.582;1.456;2023-04-03T18:49:29;6.57;;;2.70;;
17496;SDS011;62150;43.582;1.456;2023-04-03T18:51:59;5.63;;;2.60;;
17496;SDS011;62150;43.582;1.456;2023-04-03T18:54:27;5.93;;;2.87;;
17496;SDS011;62150;43.582;1.456;2023-04-03T18:56:56;7.27;;;2.90;;
17496;SDS011;62150;43.582;1.456;2023-04-03T18:59:25;4.83;;;2.63;;
17496;SDS011;62150;43.582;1.456;2023-04-03T19:01:53;7.20;;;3.20;;
17496;SDS011;62150;43.582;1.456;2023-04-03T19:04:20;6.53;;;3.00;;
17496;SDS011;62150;43.582;1.456;2023-04-03T19:06:49;6.20;;;3.00;;
17496;SDS011;62150;43.582;1.456;2023-04-03T19:09:17;6.03;;;2.70;;
17496;SDS011;62150;43.582;1.456;2023-04-03T19:11:45;7.67;;;3.23;;
17496;SDS011;62150;43.582;1.456;2023-04-03T19:14:14;5.50;;;2.83;;
17496;SDS011;62150;43.582;1.456;2023-04-03T19:16:41;7.73;;;3.00;;
17496;SDS011;62150;43.582;1.456;2023-04-03T19:19:09;6.13;;;3.00;;
17496;SDS011;62150;43.582;1.456;2023-04-03T19:21:37;5.30;;;2.77;;
17496;SDS011;62150;43.582;1.456;2023-04-03T19:24:06;6.63;;;2.70;;
17496;SDS011;62150;43.582;1.456;2023-04-03T19:26:34;7.17;;;3.20;;
17496;SDS011;62150;43.582;1.456;2023-04-03T19:29:01;6.90;;;3.23;;
17496;SDS011;62150;43.582;1.456;2023-04-03T19:31:30;8.20;;;3.13;;
17496;SDS011;62150;43.582;1.456;2023-04-03T19:33:59;7.97;;;3.40;;
17496;SDS011;62150;43.582;1.456;2023-04-03T19:36:28;9.03;;;3.70;;
17496;SDS011;62150;43.582;1.456;2023-04-03T19:38:55;8.10;;;3.50;;
17496;SDS011;62150;43.582;1.456;2023-04-03T19:41:23;5.97;;;3.10;;
17496;SDS011;62150;43.582;1.456;2023-04-03T19:43:53;7.20;;;3.27;;
17496;SDS011;62150;43.582;1.456;2023-04-03T19:46:22;5.40;;;2.93;;
17496;SDS011;62150;43.582;1.456;2023-04-03T19:48:51;6.47;;;3.20;;
17496;SDS011;62150;43.582;1.456;2023-04-03T19:51:19;5.23;;;3.00;;
17496;SDS011;62150;43.582;1.456;2023-04-03T19:53:46;6.03;;;3.13;;
17496;SDS011;62150;43.582;1.456;2023-04-03T19:56:14;7.00;;;2.90;;
17496;SDS011;62150;43.582;1.456;2023-04-03T19:58:42;6.67;;;3.13;;
17496;SDS011;62150;43.582;1.456;2023-04-03T20:01:09;6.50;;;2.73;;
17496;SDS011;62150;43.582;1.456;2023-04-03T20:03:37;6.40;;;2.90;;
17496;SDS011;62150;43.582;1.456;2023-04-03T20:06:08;8.70;;;3.20;;
17496;SDS011;62150;43.582;1.456;2023-04-03T20:08:35;5.83;;;2.90;;
17496;SDS011;62150;43.582;1.456;2023-04-03T20:11:03;6.37;;;2.90;;
17496;SDS011;62150;43.582;1.456;2023-04-03T20:13:31;5.47;;;2.63;;
17496;SDS011;62150;43.582;1.456;2023-04-03T20:16:00;5.87;;;2.90;;
17496;SDS011;62150;43.582;1.456;2023-04-03T20:18:29;6.43;;;2.93;;
17496;SDS011;62150;43.582;1.456;2023-04-03T20:20:58;6.90;;;3.10;;
17496;SDS011;62150;43.582;1.456;2023-04-03T20:23:29;7.63;;;3.00;;
17496;SDS011;62150;43.582;1.456;2023-04-03T20:25:57;6.20;;;3.00;;
17496;SDS011;62150;43.582;1.456;2023-04-03T20:28:26;6.17;;;3.00;;
17496;SDS011;62150;43.582;1.456;2023-04-03T20:30:54;4.93;;;2.63;;
17496;SDS011;62150;43.582;1.456;2023-04-03T20:33:22;5.60;;;2.83;;
17496;SDS011;62150;43.582;1.456;2023-04-03T20:35:51;6.47;;;2.73;;
17496;SDS011;62150;43.582;1.456;2023-04-03T20:38:20;6.17;;;2.57;;
17496;SDS011;62150;43.582;1.456;2023-04-03T20:40:50;5.63;;;2.60;;
17496;SDS011;62150;43.582;1.456;2023-04-03T20:43:18;6.50;;;2.60;;
17496;SDS011;62150;43.582;1.456;2023-04-03T20:45:47;6.47;;;2.80;;
17496;SDS011;62150;43.582;1.456;2023-04-03T20:48:14;5.17;;;2.70;;
17496;SDS011;62150;43.582;1.456;2023-04-03T20:50:43;5.77;;;3.20;;
17496;SDS011;62150;43.582;1.456;2023-04-03T20:53:11;7.83;;;4.00;;
17496;SDS011;62150;43.582;1.456;2023-04-03T20:55:42;9.63;;;4.40;;
17496;SDS011;62150;43.582;1.456;2023-04-03T20:58:20;11.77;;;5.80;;
17496;SDS011;62150;43.582;1.456;2023-04-03T21:00:50;12.73;;;6.60;;
17496;SDS011;62150;43.582;1.456;2023-04-03T21:03:20;11.60;;;5.77;;
17496;SDS011;62150;43.582;1.456;2023-04-03T21:05:49;9.70;;;4.93;;
17496;SDS011;62150;43.582;1.456;2023-04-03T21:20:30;8.87;;;4.13;;
17496;SDS011;62150;43.582;1.456;2023-04-03T21:22:57;9.67;;;4.30;;
17496;SDS011;62150;43.582;1.456;2023-04-03T21:25:26;8.23;;;4.27;;
17496;SDS011;62150;43.582;1.456;2023-04-03T21:27:53;9.20;;;3.97;;
17496;SDS011;62150;43.582;1.456;2023-04-03T21:30:21;6.73;;;3.30;;